Time;durP1;ratioP1;P1;durP2;ratioP2;P2;SDS_P1;SDS_P2;PMS_P1;PMS_P2;Temp;Humidity;BMP_temperature;BMP_pressure;BME280_temperature;BME280_humidity;BME280_pressure;Samples;Min_cycle;Max_cycle;Signal;HPM_P1;HPM_P2
2022/05/08 00:01:50;;;;;;;8.93;8.00;;;11.20;99.90;;;;;;6060386;23;20076;-81
2022/05/08 00:04:18;;;;;;;11.13;8.45;;;11.20;99.90;;;;;;6067041;23;20022;-81
2022/05/08 00:06:46;;;;;;;10.43;6.97;;;11.10;99.90;;;;;;6069701;23;20015;-82
2022/05/08 00:09:14;;;;;;;12.25;9.73;;;11.10;99.90;;;;;;6062635;23;20077;-82
2022/05/08 00:11:42;;;;;;;8.85;7.03;;;11.10;99.90;;;;;;6069357;23;20019;-81
2022/05/08 00:14:09;;;;;;;8.18;7.20;;;11.10;99.90;;;;;;6070516;23;20029;-82
2022/05/08 00:16:37;;;;;;;9.80;7.07;;;11.10;99.90;;;;;;6065193;23;20046;-81
2022/05/08 00:19:07;;;;;;;9.48;7.85;;;11.20;99.90;;;;;;6069367;23;20014;-81
2022/05/08 00:21:41;;;;;;;9.82;8.80;;;11.10;99.90;;;;;;6059587;23;20045;-82
2022/05/08 00:24:09;;;;;;;10.88;7.95;;;11.10;99.90;;;;;;6067569;23;20425;-81
2022/05/08 00:26:36;;;;;;;11.18;9.60;;;11.10;99.90;;;;;;6070271;23;20342;-81
2022/05/08 00:29:04;;;;;;;9.50;7.68;;;11.10;99.90;;;;;;6062794;23;20026;-81
2022/05/08 00:31:32;;;;;;;8.10;7.20;;;11.20;99.90;;;;;;6044749;23;20053;-81
2022/05/08 00:34:00;;;;;;;8.90;7.97;;;11.10;99.90;;;;;;6059811;23;20027;-81
2022/05/08 00:36:28;;;;;;;12.50;9.35;;;11.10;99.90;;;;;;6065137;23;20027;-81
2022/05/08 00:38:56;;;;;;;15.75;8.70;;;11.10;99.90;;;;;;6069143;23;20201;-82
2022/05/08 00:41:46;;;;;;;12.50;8.93;;;11.10;99.90;;;;;;6062165;23;20030;-82
2022/05/08 00:45:10;;;;;;;11.23;9.30;;;11.10;99.90;;;;;;6064139;23;20033;-82
2022/05/08 00:48:32;;;;;;;10.57;8.57;;;11.10;99.90;;;;;;6063548;23;20026;-82
2022/05/08 00:51:57;;;;;;;15.00;11.77;;;11.10;99.90;;;;;;6058823;23;20023;-81
2022/05/08 00:55:49;;;;;;;13.50;9.27;;;11.10;99.90;;;;;;6021851;23;20031;-82
2022/05/08 00:59:10;;;;;;;14.75;10.63;;;11.20;99.90;;;;;;6070982;23;20023;-82
2022/05/08 01:02:24;;;;;;;13.38;10.70;;;11.20;99.90;;;;;;6019961;23;20031;-82
2022/05/08 01:04:53;;;;;;;16.52;10.60;;;11.20;99.90;;;;;;6066173;23;20471;-82
2022/05/08 01:07:21;;;;;;;12.45;10.18;;;11.20;99.90;;;;;;6071349;23;20057;-82
2022/05/08 01:09:54;;;;;;;13.30;11.73;;;11.20;99.90;;;;;;6061772;23;20031;-81
2022/05/08 01:12:28;;;;;;;20.40;13.18;;;11.20;99.90;;;;;;6068151;23;20034;-82
2022/05/08 01:15:18;;;;;;;14.13;11.15;;;11.20;99.90;;;;;;6071602;23;20019;-82
2022/05/08 01:17:49;;;;;;;17.27;13.13;;;11.20;99.90;;;;;;6062520;23;20038;-82
2022/05/08 01:20:17;;;;;;;13.13;10.65;;;11.20;99.90;;;;;;6068585;23;20576;-82
2022/05/08 01:22:45;;;;;;;15.60;11.88;;;11.20;99.90;;;;;;6071032;23;20034;-82
2022/05/08 01:25:13;;;;;;;15.15;11.38;;;11.20;99.90;;;;;;6064552;23;20038;-82
2022/05/08 01:27:41;;;;;;;13.35;11.05;;;11.20;99.90;;;;;;6070374;23;20018;-81
2022/05/08 01:30:09;;;;;;;14.75;11.18;;;11.20;99.90;;;;;;6036629;23;20023;-81
2022/05/08 01:32:37;;;;;;;13.85;10.85;;;11.10;99.90;;;;;;6067312;23;20866;-81
2022/05/08 01:35:05;;;;;;;17.73;13.70;;;11.10;99.90;;;;;;6071750;23;20014;-81
2022/05/08 01:37:33;;;;;;;17.00;12.85;;;11.20;99.90;;;;;;6035019;23;20034;-81
2022/05/08 01:40:00;;;;;;;15.80;11.57;;;11.10;99.90;;;;;;6069279;23;20031;-81
2022/05/08 01:42:29;;;;;;;18.08;15.07;;;11.10;99.90;;;;;;6071818;23;20023;-81
2022/05/08 01:44:57;;;;;;;22.58;13.88;;;11.10;99.90;;;;;;6065880;23;20034;-81
2022/05/08 01:50:13;;;;;;;19.63;13.43;;;11.10;99.90;;;;;;6043742;23;20030;-82
2022/05/08 01:52:40;;;;;;;18.75;12.68;;;11.10;99.90;;;;;;6064476;23;20023;-81
2022/05/08 01:55:08;;;;;;;15.68;13.18;;;11.10;99.90;;;;;;6071558;23;20022;-82
2022/05/08 01:57:39;;;;;;;21.02;14.77;;;11.10;99.90;;;;;;6062637;23;20034;-82
2022/05/08 02:00:13;;;;;;;18.45;12.35;;;11.10;99.90;;;;;;6061171;23;20026;-82
2022/05/08 02:02:43;;;;;;;18.45;14.77;;;11.10;99.90;;;;;;6070819;23;20038;-81
2022/05/08 02:05:11;;;;;;;17.38;11.80;;;11.10;99.90;;;;;;6064650;23;20037;-82
2022/05/08 02:07:39;;;;;;;14.10;11.88;;;11.10;99.90;;;;;;6069452;23;20034;-81
2022/05/08 02:10:07;;;;;;;16.90;12.23;;;11.10;99.90;;;;;;6071506;23;20015;-82
2022/05/08 02:12:35;;;;;;;19.73;13.93;;;11.10;99.90;;;;;;6066945;23;20026;-82
2022/05/08 02:15:04;;;;;;;15.93;13.52;;;11.10;99.90;;;;;;6071352;23;20022;-81
2022/05/08 02:17:32;;;;;;;16.20;13.93;;;11.10;99.90;;;;;;6062398;23;20688;-81
2022/05/08 02:20:00;;;;;;;20.23;14.63;;;11.10;99.90;;;;;;6069139;23;20030;-82
2022/05/08 02:22:28;;;;;;;16.98;13.23;;;11.10;99.90;;;;;;6070590;23;20248;-81
2022/05/08 02:24:56;;;;;;;18.17;14.70;;;11.10;99.90;;;;;;6065480;23;20037;-82
2022/05/08 02:27:24;;;;;;;19.10;14.52;;;11.10;99.90;;;;;;6071261;23;20029;-82
2022/05/08 02:29:52;;;;;;;19.35;15.32;;;11.10;99.90;;;;;;6060440;23;20058;-82
2022/05/08 02:32:20;;;;;;;20.70;15.65;;;11.10;99.90;;;;;;6066370;23;20039;-82
2022/05/08 02:34:48;;;;;;;21.90;17.58;;;11.10;99.90;;;;;;6072019;23;20034;-81
2022/05/08 02:37:15;;;;;;;20.98;14.45;;;11.10;99.90;;;;;;6063538;23;20340;-82
2022/05/08 02:40:22;;;;;;;18.75;14.55;;;11.10;99.90;;;;;;6070986;23;20347;-86
2022/05/08 02:42:51;;;;;;;21.00;15.38;;;11.00;99.90;;;;;;6070219;23;20331;-82
2022/05/08 02:45:22;;;;;;;17.77;13.88;;;11.10;99.90;;;;;;6063687;23;20038;-83
2022/05/08 02:47:49;;;;;;;23.33;15.38;;;11.10;99.90;;;;;;6069504;23;20019;-82
2022/05/08 02:50:19;;;;;;;20.40;15.05;;;11.10;99.90;;;;;;6071436;23;20347;-82
2022/05/08 02:52:47;;;;;;;23.30;14.68;;;11.10;99.90;;;;;;6065040;23;20657;-82
2022/05/08 03:00:51;;;;;;;24.45;16.40;;;11.10;99.90;;;;;;6063711;23;20033;-82
2022/05/08 03:03:24;;;;;;;26.08;17.88;;;11.10;99.90;;;;;;6039072;23;20022;-83
2022/05/08 03:05:52;;;;;;;23.65;16.17;;;11.10;99.90;;;;;;6061025;23;20031;-82
2022/05/08 03:08:20;;;;;;;18.92;14.50;;;11.20;99.90;;;;;;6066691;23;20046;-83
2022/05/08 03:13:36;;;;;;;25.02;17.40;;;11.10;99.90;;;;;;6062081;23;20030;-83
2022/05/08 03:16:06;;;;;;;21.25;16.35;;;11.10;99.90;;;;;;6011820;23;20455;-83
2022/05/08 03:18:34;;;;;;;20.10;14.90;;;11.20;99.90;;;;;;6012960;23;20455;-83
2022/05/08 03:21:02;;;;;;;23.90;16.23;;;11.20;99.90;;;;;;6038422;23;20038;-83
2022/05/08 03:23:31;;;;;;;23.55;15.25;;;11.20;99.90;;;;;;6070768;23;20022;-83
2022/05/08 03:25:59;;;;;;;20.50;14.10;;;11.20;99.90;;;;;;6058821;23;20027;-83
2022/05/08 03:28:27;;;;;;;21.00;16.55;;;11.20;99.90;;;;;;6064619;23;20031;-83
2022/05/08 03:30:54;;;;;;;21.35;17.50;;;11.10;99.90;;;;;;6070329;23;20473;-83
2022/05/08 03:33:22;;;;;;;26.33;17.08;;;11.20;99.90;;;;;;6063278;23;20034;-83
2022/05/08 03:35:50;;;;;;;19.30;16.10;;;11.10;99.90;;;;;;6068734;23;20019;-83
2022/05/08 03:38:18;;;;;;;22.63;14.38;;;11.20;99.90;;;;;;6069436;23;20025;-83
2022/05/08 03:40:46;;;;;;;22.05;15.20;;;11.20;99.90;;;;;;6034666;23;20034;-83
2022/05/08 03:43:13;;;;;;;22.08;18.15;;;11.20;99.90;;;;;;6070425;23;20015;-83
2022/05/08 03:45:41;;;;;;;23.30;18.42;;;11.20;99.90;;;;;;6062195;23;20034;-83
2022/05/08 03:48:11;;;;;;;20.10;14.93;;;11.20;99.90;;;;;;6067218;23;20022;-83
2022/05/08 03:50:44;;;;;;;24.10;17.00;;;11.20;99.90;;;;;;6060883;23;20026;-83
2022/05/08 03:53:12;;;;;;;21.88;17.42;;;11.20;99.90;;;;;;6062879;23;20359;-82
2022/05/08 03:55:40;;;;;;;19.48;16.83;;;11.20;99.90;;;;;;6069798;23;20022;-82
2022/05/08 03:58:07;;;;;;;21.77;16.20;;;11.20;99.90;;;;;;6070049;23;20019;-83
2022/05/08 04:00:35;;;;;;;24.55;17.40;;;11.20;99.90;;;;;;6065971;23;20031;-83
2022/05/08 04:03:03;;;;;;;36.40;21.23;;;11.20;99.90;;;;;;6070758;23;20683;-83
2022/05/08 04:05:30;;;;;;;23.77;17.13;;;11.20;99.90;;;;;;6062019;23;20492;-83
2022/05/08 04:07:58;;;;;;;20.92;17.52;;;11.20;99.90;;;;;;6067056;23;20019;-83
2022/05/08 04:10:26;;;;;;;27.48;17.58;;;11.20;99.90;;;;;;6070132;23;20014;-83
2022/05/08 04:12:54;;;;;;;25.38;18.95;;;11.20;99.90;;;;;;6039040;23;20026;-83
2022/05/08 04:18:09;;;;;;;19.23;16.40;;;11.20;99.90;;;;;;6058774;23;20782;-83
2022/05/08 04:20:40;;;;;;;24.45;17.83;;;11.20;99.90;;;;;;6064718;23;20475;-83
2022/05/08 04:26:01;;;;;;;22.00;15.20;;;11.20;99.90;;;;;;6060284;23;20037;-82
2022/05/08 04:28:29;;;;;;;19.65;16.88;;;11.30;99.90;;;;;;6065461;23;20469;-83
2022/05/08 04:30:56;;;;;;;29.42;16.63;;;11.20;99.90;;;;;;6069658;23;20019;-82
2022/05/08 04:33:24;;;;;;;26.95;15.98;;;11.20;99.90;;;;;;6062427;23;20031;-83
2022/05/08 04:35:52;;;;;;;25.02;19.45;;;11.30;99.90;;;;;;6068382;23;20620;-83
2022/05/08 04:38:19;;;;;;;26.48;18.98;;;11.30;99.90;;;;;;6069004;23;20025;-83
2022/05/08 04:40:47;;;;;;;25.85;17.60;;;11.30;99.90;;;;;;6063446;23;20041;-82
2022/05/08 04:43:15;;;;;;;21.17;15.88;;;11.30;99.90;;;;;;6069679;23;20031;-83
2022/05/08 04:45:42;;;;;;;26.48;19.50;;;11.30;99.90;;;;;;6061049;23;20030;-83
2022/05/08 04:48:10;;;;;;;24.90;17.73;;;11.30;99.90;;;;;;6066846;23;20019;-83
2022/05/08 04:50:39;;;;;;;24.08;17.67;;;11.30;99.90;;;;;;6069894;23;20617;-83
2022/05/08 04:53:07;;;;;;;23.92;18.40;;;11.30;99.90;;;;;;6060806;23;20022;-83
2022/05/08 04:55:35;;;;;;;24.33;19.60;;;11.30;99.90;;;;;;6068869;23;20015;-82
2022/05/08 04:58:02;;;;;;;25.05;18.17;;;11.30;99.90;;;;;;6059368;23;20031;-83
2022/05/08 05:00:30;;;;;;;28.25;19.55;;;11.40;99.90;;;;;;6065382;23;20034;-83
2022/05/08 05:02:58;;;;;;;20.80;15.98;;;11.40;99.90;;;;;;6069921;23;20019;-83
2022/05/08 05:05:25;;;;;;;28.13;17.52;;;11.40;99.90;;;;;;6061552;23;20041;-83
2022/05/08 05:07:55;;;;;;;26.38;15.77;;;11.50;99.90;;;;;;6065780;23;20015;-83
2022/05/08 05:10:28;;;;;;;23.92;16.80;;;11.50;99.90;;;;;;6059550;23;20502;-83
2022/05/08 05:12:56;;;;;;;22.50;17.33;;;11.50;99.90;;;;;;6033842;23;20336;-82
2022/05/08 05:15:24;;;;;;;22.83;15.45;;;11.60;99.90;;;;;;6034390;23;20026;-83
2022/05/08 05:17:52;;;;;;;24.92;17.38;;;11.60;99.90;;;;;;6059011;23;20031;-84
2022/05/08 05:20:20;;;;;;;23.25;17.65;;;11.60;99.90;;;;;;6066078;23;20062;-83
2022/05/08 05:22:48;;;;;;;24.30;17.48;;;11.60;99.90;;;;;;6068686;23;20019;-83
2022/05/08 05:25:15;;;;;;;20.83;16.63;;;11.70;99.90;;;;;;6061962;23;20494;-83
2022/05/08 05:27:43;;;;;;;18.92;14.60;;;11.70;99.90;;;;;;6067876;23;20026;-81
2022/05/08 05:30:11;;;;;;;22.08;18.27;;;11.70;99.90;;;;;;6068971;23;20015;-83
2022/05/08 05:32:39;;;;;;;22.58;15.88;;;11.70;99.90;;;;;;6065046;23;20022;-84
2022/05/08 05:35:07;;;;;;;21.45;17.67;;;11.80;99.90;;;;;;6068212;23;20015;-83
2022/05/08 05:37:35;;;;;;;20.00;14.35;;;11.80;99.90;;;;;;6060054;23;20023;-83
2022/05/08 05:40:03;;;;;;;25.58;19.08;;;11.70;99.90;;;;;;6065902;23;20027;-83
2022/05/08 05:42:37;;;;;;;21.60;16.30;;;11.70;99.90;;;;;;6067894;23;20015;-83
2022/05/08 05:45:05;;;;;;;22.70;16.45;;;11.60;99.90;;;;;;6064048;23;20039;-83
2022/05/08 05:50:21;;;;;;;26.42;15.95;;;11.60;99.90;;;;;;6045640;23;20038;-83
2022/05/08 05:52:50;;;;;;;15.90;12.93;;;11.60;99.90;;;;;;6065553;23;20038;-82
2022/05/08 05:55:20;;;;;;;20.83;15.93;;;11.60;99.90;;;;;;6071511;23;20021;-83
2022/05/08 05:57:53;;;;;;;19.63;14.32;;;11.60;99.90;;;;;;6060890;23;20037;-84
2022/05/08 06:00:21;;;;;;;19.00;14.50;;;11.70;99.90;;;;;;6066288;23;20030;-83
2022/05/08 06:02:49;;;;;;;22.77;16.13;;;11.60;99.90;;;;;;6070704;23;20035;-84
2022/05/08 06:05:16;;;;;;;18.80;13.88;;;11.60;99.90;;;;;;6064105;23;20023;-83
2022/05/08 06:07:45;;;;;;;16.73;12.18;;;11.70;99.90;;;;;;6068969;23;20015;-83
2022/05/08 06:10:14;;;;;;;18.83;14.15;;;11.60;99.90;;;;;;6070808;23;20343;-83
2022/05/08 06:12:42;;;;;;;21.15;15.63;;;11.60;99.90;;;;;;6035481;23;20086;-82
2022/05/08 06:15:10;;;;;;;16.92;13.90;;;11.70;99.90;;;;;;6035471;23;20019;-84
2022/05/08 06:17:38;;;;;;;19.17;16.77;;;11.70;99.90;;;;;;6061973;23;20023;-83
2022/05/08 06:20:06;;;;;;;19.63;14.38;;;11.60;99.90;;;;;;6068612;23;20027;-84
2022/05/08 06:22:35;;;;;;;21.90;17.98;;;11.60;99.90;;;;;;6044785;23;20442;-83
2022/05/08 06:25:04;;;;;;;23.10;17.63;;;11.60;99.90;;;;;;6063593;23;20034;-83
2022/05/08 06:27:31;;;;;;;21.20;13.77;;;11.70;99.90;;;;;;6070379;23;20654;-82
2022/05/08 06:29:59;;;;;;;19.77;17.23;;;11.70;99.90;;;;;;6059773;23;20033;-83
2022/05/08 06:32:29;;;;;;;23.35;16.35;;;11.70;99.90;;;;;;6066412;23;20030;-82
2022/05/08 06:35:15;;;;;;;19.17;16.90;;;11.70;99.90;;;;;;6070942;23;20015;-82
2022/05/08 06:37:43;;;;;;;18.95;14.35;;;11.70;99.90;;;;;;6058779;23;20027;-83
2022/05/08 06:40:11;;;;;;;26.20;16.30;;;11.70;99.90;;;;;;6033360;23;20049;-83
2022/05/08 06:42:39;;;;;;;19.08;13.65;;;11.70;99.90;;;;;;6044741;23;20015;-83
2022/05/08 06:45:07;;;;;;;19.27;14.82;;;11.70;99.90;;;;;;6034353;23;20359;-83
2022/05/08 06:47:35;;;;;;;18.30;14.45;;;11.70;99.90;;;;;;6069962;23;20022;-84
2022/05/08 06:50:02;;;;;;;17.85;13.18;;;11.70;99.90;;;;;;6060000;23;20035;-84
2022/05/08 06:52:31;;;;;;;17.27;13.45;;;11.70;99.90;;;;;;6064735;23;20027;-83
2022/05/08 06:54:59;;;;;;;17.02;13.57;;;11.70;99.90;;;;;;6070392;23;20022;-83
2022/05/08 06:57:27;;;;;;;21.38;15.05;;;11.70;99.90;;;;;;6062292;23;20030;-83
2022/05/08 07:02:45;;;;;;;18.08;13.63;;;11.80;99.90;;;;;;6069822;23;20448;-83
2022/05/08 07:05:13;;;;;;;20.90;16.63;;;11.90;99.90;;;;;;6062332;23;20576;-83
2022/05/08 07:07:41;;;;;;;18.67;12.90;;;12.00;99.90;;;;;;6068479;23;20015;-82
2022/05/08 07:10:09;;;;;;;13.90;10.23;;;12.10;99.90;;;;;;6070728;23;20015;-83
2022/05/08 07:12:37;;;;;;;13.32;12.00;;;12.10;99.90;;;;;;6065938;23;20030;-82
2022/05/08 07:15:10;;;;;;;17.20;12.30;;;12.20;99.90;;;;;;6070572;23;20029;-84
2022/05/08 07:17:42;;;;;;;13.85;11.88;;;12.20;99.90;;;;;;6060989;23;20030;-84
2022/05/08 07:20:10;;;;;;;12.48;11.18;;;12.20;99.90;;;;;;6067804;23;20026;-82
2022/05/08 07:22:39;;;;;;;13.52;11.65;;;12.20;99.90;;;;;;6069945;23;20419;-82
2022/05/08 07:25:07;;;;;;;17.40;12.73;;;12.20;99.90;;;;;;6062963;23;20463;-83
2022/05/08 07:27:39;;;;;;;15.90;12.20;;;12.30;99.90;;;;;;6070247;23;20026;-82
2022/05/08 07:30:07;;;;;;;16.77;11.55;;;12.30;99.90;;;;;;6057420;23;20027;-84
2022/05/08 07:32:35;;;;;;;16.58;14.15;;;12.40;99.90;;;;;;6062665;23;20033;-82
2022/05/08 07:37:56;;;;;;;12.65;11.02;;;12.40;99.90;;;;;;6057255;23;20034;-85
2022/05/08 07:40:25;;;;;;;11.75;10.55;;;12.40;99.90;;;;;;6066424;23;20034;-83
2022/05/08 07:42:53;;;;;;;12.98;8.80;;;12.30;99.90;;;;;;6070455;23;20023;-82
2022/05/08 07:45:21;;;;;;;11.55;10.23;;;12.40;99.90;;;;;;6062500;23;20038;-85
2022/05/08 07:47:49;;;;;;;15.40;10.75;;;12.50;99.90;;;;;;6068199;23;20022;-84
2022/05/08 07:50:17;;;;;;;10.95;9.88;;;12.50;99.90;;;;;;6070501;23;20019;-84
2022/05/08 07:52:44;;;;;;;14.18;12.07;;;12.60;99.90;;;;;;6058580;23;20026;-84
2022/05/08 07:55:12;;;;;;;12.70;10.43;;;12.60;99.90;;;;;;6069929;23;20042;-84
2022/05/08 07:57:40;;;;;;;11.20;9.02;;;12.70;99.90;;;;;;6034283;23;20041;-82
2022/05/08 08:00:08;;;;;;;10.50;9.43;;;12.70;99.90;;;;;;6067101;23;20037;-84
2022/05/08 08:02:47;;;;;;;10.63;9.07;;;12.70;99.90;;;;;;6035323;23;20045;-83
2022/05/08 08:05:20;;;;;;;9.40;8.38;;;12.50;99.90;;;;;;6059404;23;20030;-83
2022/05/08 08:07:50;;;;;;;15.40;10.20;;;12.50;99.90;;;;;;6066532;23;20453;-85
2022/05/08 08:10:19;;;;;;;11.95;10.18;;;12.50;99.90;;;;;;6069917;23;20015;-83
2022/05/08 08:12:47;;;;;;;13.52;10.82;;;12.70;99.90;;;;;;6033637;23;20038;-83
2022/05/08 08:15:15;;;;;;;11.93;9.52;;;12.90;99.90;;;;;;6021087;23;20019;-83
2022/05/08 08:17:43;;;;;;;12.35;9.50;;;12.90;99.90;;;;;;6035003;23;20050;-84
2022/05/08 08:20:11;;;;;;;10.15;8.48;;;13.00;99.90;;;;;;6067048;23;20045;-83
2022/05/08 08:22:38;;;;;;;9.85;8.02;;;13.10;99.90;;;;;;6034363;23;20030;-82
2022/05/08 08:25:06;;;;;;;12.38;9.00;;;13.10;99.90;;;;;;6034976;23;20027;-84
2022/05/08 08:27:35;;;;;;;12.32;9.50;;;13.10;99.90;;;;;;6035247;23;20015;-82
2022/05/08 08:30:03;;;;;;;9.73;6.68;;;13.00;99.90;;;;;;6058895;23;20043;-83
2022/05/08 08:32:31;;;;;;;12.48;8.82;;;13.00;99.90;;;;;;6065726;23;20037;-83
2022/05/08 08:34:59;;;;;;;12.45;8.30;;;13.00;99.90;;;;;;6044784;23;20026;-85
2022/05/08 08:37:27;;;;;;;7.50;6.63;;;13.10;99.90;;;;;;6036166;23;20029;-83
2022/05/08 08:39:55;;;;;;;10.13;9.13;;;13.10;99.90;;;;;;6032205;23;20019;-83
2022/05/08 08:42:29;;;;;;;7.47;6.57;;;13.10;99.90;;;;;;6035154;23;20027;-82
2022/05/08 08:48:06;;;;;;;9.85;7.55;;;13.20;99.90;;;;;;6066693;23;20015;-82
2022/05/08 08:50:36;;;;;;;10.20;6.60;;;13.20;99.90;;;;;;6044266;23;20035;-80
2022/05/08 08:53:07;;;;;;;9.15;8.07;;;13.30;99.90;;;;;;6062277;23;20030;-84
2022/05/08 08:55:35;;;;;;;7.63;6.93;;;13.30;99.90;;;;;;6069189;23;20015;-81
2022/05/08 08:58:03;;;;;;;9.70;8.38;;;13.20;99.90;;;;;;6059227;23;20030;-82
2022/05/08 09:00:32;;;;;;;10.23;8.43;;;13.30;99.90;;;;;;6064685;23;20034;-83
2022/05/08 09:03:00;;;;;;;9.10;8.15;;;13.40;99.90;;;;;;6069196;23;20015;-86
2022/05/08 09:05:28;;;;;;;7.63;6.50;;;13.60;99.90;;;;;;6061779;23;20045;-81
2022/05/08 09:07:58;;;;;;;8.23;7.43;;;13.70;99.90;;;;;;6064113;23;20022;-81
2022/05/08 09:10:35;;;;;;;9.32;7.03;;;13.70;99.90;;;;;;6034458;23;20058;-83
2022/05/08 09:13:05;;;;;;;7.13;6.13;;;13.70;99.90;;;;;;6063736;23;20031;-81
2022/05/08 09:15:38;;;;;;;7.50;6.63;;;13.70;99.90;;;;;;6069273;23;20018;-82
2022/05/08 09:18:10;;;;;;;9.93;7.45;;;13.90;99.90;;;;;;6069784;23;20018;-84
2022/05/08 09:20:51;;;;;;;8.48;7.35;;;13.80;99.90;;;;;;6041641;23;20030;-83
2022/05/08 09:23:20;;;;;;;7.00;6.32;;;13.90;99.90;;;;;;6071401;23;20026;-83
2022/05/08 09:25:53;;;;;;;9.55;5.10;;;14.10;99.90;;;;;;6062380;23;20471;-83
2022/05/08 09:28:43;;;;;;;7.93;6.97;;;14.30;99.90;;;;;;6066262;23;20031;-85
2022/05/08 09:31:15;;;;;;;5.03;4.60;;;14.50;99.90;;;;;;6071535;23;20517;-83
2022/05/08 09:33:46;;;;;;;13.02;7.22;;;14.40;99.90;;;;;;6013794;23;20035;-83
2022/05/08 09:36:22;;;;;;;10.35;7.30;;;14.30;99.90;;;;;;6067978;23;20046;-84
2022/05/08 09:38:57;;;;;;;5.60;5.10;;;14.30;99.90;;;;;;6070975;23;20023;-82
2022/05/08 09:41:30;;;;;;;6.35;5.70;;;14.20;99.90;;;;;;6063635;23;20035;-83
2022/05/08 09:44:15;;;;;;;8.55;7.78;;;14.30;99.90;;;;;;6069533;23;20026;-83
2022/05/08 09:46:45;;;;;;;7.10;6.47;;;14.30;99.90;;;;;;6071609;23;20019;-82
2022/05/08 09:49:17;;;;;;;7.15;5.35;;;14.30;99.90;;;;;;6064187;23;20444;-82
2022/05/08 09:51:45;;;;;;;6.47;5.75;;;14.00;99.90;;;;;;6068578;23;20509;-84
2022/05/08 09:54:17;;;;;;;7.03;5.82;;;13.90;99.90;;;;;;6071960;23;20054;-81
2022/05/08 09:56:47;;;;;;;6.63;6.00;;;14.00;99.90;;;;;;6066184;23;20070;-84
2022/05/08 09:59:19;;;;;;;7.90;6.47;;;14.00;99.90;;;;;;6069405;23;20439;-82
2022/05/08 10:01:47;;;;;;;7.18;6.47;;;13.90;99.90;;;;;;6061530;23;20026;-87
2022/05/08 10:04:15;;;;;;;8.52;7.32;;;13.90;99.90;;;;;;6068728;23;20027;-85
2022/05/08 10:06:47;;;;;;;9.13;5.88;;;13.80;99.90;;;;;;6070830;23;20030;-86
2022/05/08 10:15:09;;;;;;;8.20;7.45;;;13.60;99.90;;;;;;6071254;23;20030;-86
2022/05/08 10:17:40;;;;;;;8.15;7.35;;;13.60;99.90;;;;;;6060474;23;20026;-89
2022/05/08 10:20:08;;;;;;;8.13;6.47;;;13.50;99.90;;;;;;6067112;23;20022;-87
2022/05/08 10:22:49;;;;;;;7.05;6.38;;;13.50;99.90;;;;;;6070891;23;20015;-86
2022/05/08 10:25:17;;;;;;;7.85;7.13;;;13.50;99.90;;;;;;6038687;23;20039;-88
2022/05/08 10:28:07;;;;;;;8.43;6.70;;;13.50;99.90;;;;;;6034350;23;20023;-86
2022/05/08 10:30:35;;;;;;;8.95;7.05;;;13.50;99.90;;;;;;6034487;23;20032;-86
2022/05/08 10:33:03;;;;;;;8.50;7.68;;;13.60;99.90;;;;;;6039025;23;20073;-84
2022/05/08 10:35:31;;;;;;;10.52;7.70;;;13.60;99.90;;;;;;6071135;23;20025;-85
2022/05/08 10:38:02;;;;;;;9.18;8.45;;;13.60;99.90;;;;;;6058479;23;20031;-85
2022/05/08 10:40:31;;;;;;;10.95;9.40;;;13.60;99.90;;;;;;6067059;23;20031;-83
2022/05/08 10:43:01;;;;;;;9.77;8.77;;;13.60;99.90;;;;;;6069877;23;20039;-87
2022/05/08 10:45:32;;;;;;;9.82;8.25;;;13.60;99.90;;;;;;6038464;23;20637;-84
2022/05/08 10:48:14;;;;;;;7.93;7.18;;;13.60;99.90;;;;;;6068058;23;20030;-86
2022/05/08 10:50:47;;;;;;;11.55;8.38;;;13.60;99.90;;;;;;6036100;23;20026;-84
2022/05/08 10:53:36;;;;;;;10.38;8.25;;;13.60;99.90;;;;;;6063539;23;20039;-85
2022/05/08 10:56:09;;;;;;;9.77;8.80;;;13.60;99.90;;;;;;6043006;23;20033;-84
2022/05/08 10:58:53;;;;;;;8.20;7.40;;;13.60;99.90;;;;;;6069504;23;20019;-84
2022/05/08 11:01:20;;;;;;;13.02;9.20;;;13.50;99.90;;;;;;6038006;23;20466;-83
2022/05/08 11:03:48;;;;;;;10.10;7.68;;;13.50;99.90;;;;;;6034990;23;20018;-85
2022/05/08 11:06:21;;;;;;;10.63;9.63;;;13.50;99.90;;;;;;6034980;23;20699;-82
2022/05/08 11:08:49;;;;;;;10.00;7.93;;;13.40;99.90;;;;;;6064844;23;20027;-82
2022/05/08 11:11:17;;;;;;;13.00;7.85;;;13.40;99.90;;;;;;6070983;23;20011;-84
2022/05/08 11:13:48;;;;;;;9.93;7.47;;;13.40;99.90;;;;;;6060547;23;20023;-83
2022/05/08 11:16:39;;;;;;;10.40;9.40;;;13.50;99.90;;;;;;6042805;23;20359;-83
2022/05/08 11:19:07;;;;;;;10.57;9.57;;;13.60;99.90;;;;;;5988603;23;20019;-82
2022/05/08 11:21:35;;;;;;;9.65;7.40;;;13.70;99.90;;;;;;6062092;23;20038;-83
2022/05/08 11:24:03;;;;;;;10.93;8.13;;;13.90;99.90;;;;;;6043129;23;20351;-82
2022/05/08 11:26:34;;;;;;;8.60;7.70;;;14.00;99.90;;;;;;6070397;23;20061;-82
2022/05/08 11:29:05;;;;;;;8.55;7.15;;;14.20;99.90;;;;;;6064251;23;20484;-83
2022/05/08 11:36:03;;;;;;;10.43;9.27;;;14.40;99.90;;;;;;6033708;23;20030;-83
2022/05/08 11:37:19;;;;;;;7.85;5.65;;;14.70;99.90;;;;;;6062644;23;20034;-82
2022/05/08 11:39:47;;;;;;;11.20;8.48;;;14.80;99.90;;;;;;6069072;23;20023;-83
2022/05/08 11:42:15;;;;;;;9.00;8.02;;;14.80;99.90;;;;;;6070184;23;20021;-83
2022/05/08 11:44:42;;;;;;;9.38;8.45;;;14.90;99.90;;;;;;6040251;23;20030;-81
2022/05/08 11:47:12;;;;;;;11.15;9.18;;;14.90;99.90;;;;;;6070401;23;20011;-84
2022/05/08 11:49:42;;;;;;;9.13;8.23;;;15.00;99.90;;;;;;6059911;23;20485;-82
2022/05/08 11:52:20;;;;;;;9.27;8.48;;;15.10;99.90;;;;;;6066791;23;20027;-81
2022/05/08 11:54:59;;;;;;;10.60;7.38;;;15.10;99.90;;;;;;6070764;23;20022;-82
2022/05/08 11:57:28;;;;;;;11.82;10.73;;;15.20;99.90;;;;;;6062628;23;20034;-82
2022/05/08 12:00:05;;;;;;;10.48;8.65;;;15.30;99.90;;;;;;6068970;23;20031;-84
2022/05/08 12:02:47;;;;;;;9.50;7.88;;;15.50;99.90;;;;;;6070241;23;20614;-82
2022/05/08 12:05:21;;;;;;;9.43;8.52;;;15.60;99.90;;;;;;6063087;23;20037;-83
2022/05/08 12:07:49;;;;;;;9.43;8.57;;;15.60;99.90;;;;;;6067562;23;20015;-82
2022/05/08 12:10:18;;;;;;;10.98;8.48;;;15.60;99.90;;;;;;6070501;23;20030;-83
2022/05/08 12:12:46;;;;;;;10.10;8.95;;;15.60;99.90;;;;;;6065478;23;20031;-82
2022/05/08 12:15:15;;;;;;;9.25;8.27;;;15.70;99.90;;;;;;6070136;23;20026;-83
2022/05/08 12:17:43;;;;;;;8.77;7.88;;;15.60;99.90;;;;;;6059466;23;20050;-83
2022/05/08 12:20:17;;;;;;;7.82;7.13;;;15.70;99.90;;;;;;6067446;23;20034;-84
2022/05/08 12:23:06;;;;;;;9.48;8.57;;;15.80;99.90;;;;;;6034111;23;20033;-83
2022/05/08 12:25:38;;;;;;;9.50;7.78;;;15.60;99.90;;;;;;6061305;23;20030;-83
2022/05/08 12:28:06;;;;;;;7.20;6.47;;;15.60;99.90;;;;;;6033398;23;20029;-82
2022/05/08 12:30:34;;;;;;;10.25;8.00;;;15.50;99.90;;;;;;6068338;23;20014;-81
2022/05/08 12:33:02;;;;;;;7.85;6.28;;;15.40;99.90;;;;;;6063718;23;20031;-82
2022/05/08 12:35:30;;;;;;;8.35;7.55;;;15.60;99.90;;;;;;6070284;23;20026;-81
2022/05/08 12:37:58;;;;;;;10.60;7.32;;;15.80;99.90;;;;;;6058962;23;20501;-83
2022/05/08 12:40:26;;;;;;;8.50;6.82;;;15.90;99.90;;;;;;6034366;23;20034;-80
2022/05/08 12:42:54;;;;;;;8.25;7.40;;;15.90;99.90;;;;;;6034159;23;20027;-82
2022/05/08 12:45:22;;;;;;;7.07;6.38;;;16.10;99.90;;;;;;6062222;23;20030;-82
2022/05/08 12:47:49;;;;;;;6.07;5.20;;;16.30;99.90;;;;;;6042570;23;20015;-80
2022/05/08 12:50:17;;;;;;;9.68;7.50;;;16.30;99.90;;;;;;6069439;23;20011;-83
2022/05/08 12:52:57;;;;;;;7.43;6.15;;;16.60;99.90;;;;;;6012887;23;20023;-93
2022/05/08 12:55:28;;;;;;;7.15;6.45;;;16.60;99.90;;;;;;6015227;23;20034;-82
2022/05/08 13:00:42;;;;;;;6.93;6.28;;;16.60;99.90;;;;;;6065900;23;20031;-81
2022/05/08 13:03:22;;;;;;;11.55;9.27;;;16.80;99.90;;;;;;6084128;23;20014;31
2022/05/08 13:07:01;;;;;;;7.05;5.40;;;16.70;99.90;;;;;;6127413;23;20030;-93
2022/05/08 13:09:49;;;;;;;11.02;8.10;;;16.20;99.90;;;;;;6029517;23;20023;-80
2022/05/08 13:12:16;;;;;;;5.10;4.60;;;16.00;99.90;;;;;;6155790;23;20032;-82
2022/05/08 13:14:44;;;;;;;8.30;6.70;;;16.00;99.90;;;;;;6159834;23;20021;-80
2022/05/08 13:17:12;;;;;;;6.45;5.85;;;16.10;99.90;;;;;;6152330;23;20029;-81
2022/05/08 13:19:40;;;;;;;7.55;5.47;;;16.10;99.90;;;;;;6157952;23;20017;-81
2022/05/08 13:22:07;;;;;;;8.30;4.35;;;16.20;99.90;;;;;;6158836;23;20017;-80
2022/05/08 13:24:35;;;;;;;7.20;5.13;;;16.10;99.90;;;;;;6154460;23;20033;-80
2022/05/08 13:27:03;;;;;;;7.80;5.43;;;16.30;99.90;;;;;;6159894;23;20013;-81
2022/05/08 13:29:32;;;;;;;5.85;5.22;;;16.60;99.90;;;;;;6150042;23;20814;-81
2022/05/08 13:32:01;;;;;;;14.82;6.25;;;16.90;99.90;;;;;;6156871;23;20469;-83
2022/05/08 13:34:30;;;;;;;5.78;5.18;;;16.90;99.90;;;;;;6159830;23;20020;-87
2022/05/08 13:36:59;;;;;;;8.20;6.22;;;16.70;99.90;;;;;;6153130;23;20026;-85